Tropical Cyclones
[Index]
Main Index Home Page Stock Weather Photos Extreme Storms Discussion Storm News and Storm Chasing Reports Tropical Cyclones / Hurricanes / Typhoons Weather Data and Links Wild Fires / Bushfires Weather Observation Techniques Weather Picture Catalogue Tornado Pictures and Reports Stock Video Footage and DVDs for sale
Season 1975-1976 Tropical Cyclone RAY Track Map
Season 1975-1976 Summaries: [BoM-AU] [JTWC-AU] [JTWC-SIO] [JTWC-SPAC] [JTWC-SH]
<<- Previous TC | BoM 1975-1976 Season | Next TC ->>

click for intensity scale information  Lat/long Grid: Show Hide

 Date Labels: Show Hide

Bureau of Meteorology Tropical Cyclone Data

Name: RAY
Number: 546 / 197576_01

17 Nov 1975 00:00 UTC to 25 Nov 1975 00:00 UTC

    date/time    lat    long    hPa   cat  kts
1975-11-17 00    7.0   102.2   1008                     
1975-11-17 03    7.1   101.8   1008                     
1975-11-17 06    7.2   101.5   1007                     
1975-11-17 09    7.4   101.0   1007                     
1975-11-17 12    7.5   100.6   1006                     
1975-11-17 18    7.9    99.9   1005                     
1975-11-17 21    8.0    99.7   1004                     
1975-11-18 00    8.1    99.4   1003                     
1975-11-18 03    8.2    99.2   1002                     
1975-11-18 06    8.3    99.0   1001                     
1975-11-18 09    8.4    98.9   1000                     
1975-11-18 12    8.5    98.7    999                     
1975-11-18 15    8.6    98.5    998                     
1975-11-18 18    8.7    98.3    997                     
1975-11-18 21    8.8    98.1    996                     
1975-11-19 00    9.0    98.0    994    1                
1975-11-19 03    9.1    97.9    994    1                
1975-11-19 06    9.2    97.7    993    1                
1975-11-19 09    9.3    97.6    992    1                
1975-11-19 12    9.4    97.4    991    1                
1975-11-19 15    9.5    97.3    991    1                
1975-11-19 18    9.6    97.1    990    1                
1975-11-19 21    9.7    97.0    989    1                
1975-11-20 00    9.8    96.8    988    1                
1975-11-20 03    9.8    96.7    987    1                
1975-11-20 06    9.9    96.5    986    1                
1975-11-20 09   10.0    96.3    986    1                
1975-11-20 12   10.1    96.0    985    2                
1975-11-20 15   10.2    95.7    984    2                
1975-11-20 18   10.2    95.3    983    2                
1975-11-20 21   10.2    95.0    982    2                
1975-11-21 00   10.2    94.7    981    2                
1975-11-21 03   10.3    94.6    980    2                
1975-11-21 06   10.5    94.3    979    2                
1975-11-21 09   10.7    94.1    978    2                
1975-11-21 12   10.9    94.0    977    2                
1975-11-21 15   11.0    93.8    976    2                
1975-11-21 18   11.2    93.6    975    2                
1975-11-21 21   11.6    93.5    974    2                
1975-11-22 00   11.8    93.4    973    2                
1975-11-22 03   12.1    93.2    973    2                
1975-11-22 06   12.4    93.1    974    2                
1975-11-22 09   12.7    92.8    975    2                
1975-11-22 12   13.0    92.4    977    2                
1975-11-22 15   13.5    91.9    978    2                
1975-11-22 18   14.0    91.4    979    2                
1975-11-22 21   14.5    90.9    980    2                
1975-11-23 00   15.1    90.5    981    2                
1975-11-23 03   15.5    90.2    983    2                
1975-11-23 06   16.0    90.0    983    2                
1975-11-23 09   16.5    89.5    985    2                
1975-11-23 12   17.0    89.0    989    1                
1975-11-23 15   17.6    88.7    993    1                
1975-11-23 18   18.2    88.5    995    1                
1975-11-23 21   18.9    88.3    997                     
1975-11-24 00   19.4    88.0    999                     
1975-11-24 03   20.1    88.2   1000                     
1975-11-24 06   20.8    88.6   1000                     
1975-11-24 09   21.2    89.0   1001                     
1975-11-24 12   21.9    89.8   1004                     
1975-11-24 15   22.2    90.1   1006                     
1975-11-24 18   22.8    90.8   1006                     
1975-11-24 21   23.2    91.4   1005                     
1975-11-25 00   23.7    92.0   1006                     
Winds are 10-min average.

Tropical cyclone tracks developed by Michael Bath using data from the Bureau of Meteorology and Google Maps.


[Australian Severe Weather index] [Copyright Notice] [Email Contacts] [Search This Site] [Privacy Policy]
Document: tropical_cyclone_ray.htm Updated: 30 May 2013